Terminal Aerodrome Forecast
Issued by NWS Sterling, VA

Home | Current Version | Previous Version | Text Only | Print | Product List | Glossary On
Versions: 1 2 3 4 5 6 7 8 9 10 11 12 13 14 15 16 17 18 19
320
FTUS41 KLWX 252059 AAA
TAFBWI
TAF AMD
KBWI 252059Z 2521/2624 06016G23KT 4SM -DZ BR OVC009
     FM260000 05011KT 5SM -RA OVC008
     FM260400 03009KT 3SM BR OVC008
     FM261200 35006KT P6SM OVC015
     FM262100 VRB03KT P6SM BKN025
     FM262300 VRB03KT P6SM SCT025=

USA.gov is the U.S. government's official web portal to all federal, state and local government web resources and services.